sensor_id;sensor_type;location;lat;lon;timestamp;pressure;altitude;pressure_sealevel;temperature;humidity
7026;BME280;3554;42.132;24.786;2023-03-20T00:00:17;99781.84;;;8.50;100.00
7026;BME280;3554;42.132;24.786;2023-03-20T00:02:46;99792.53;;;8.74;100.00
7026;BME280;3554;42.132;24.786;2023-03-20T00:05:17;99788.22;;;8.73;100.00
7026;BME280;3554;42.132;24.786;2023-03-20T00:07:46;99769.09;;;8.38;100.00
7026;BME280;3554;42.132;24.786;2023-03-20T00:10:14;99774.22;;;8.43;100.00
7026;BME280;3554;42.132;24.786;2023-03-20T00:12:41;99774.75;;;8.55;100.00
7026;BME280;3554;42.132;24.786;2023-03-20T00:15:22;99699.81;;;8.28;100.00
7026;BME280;3554;42.132;24.786;2023-03-20T00:17:50;99763.75;;;8.77;100.00
7026;BME280;3554;42.132;24.786;2023-03-20T00:20:18;99763.16;;;8.65;100.00
7026;BME280;3554;42.132;24.786;2023-03-20T00:22:45;99759.16;;;8.54;100.00
7026;BME280;3554;42.132;24.786;2023-03-20T00:25:13;99759.53;;;8.71;100.00
7026;BME280;3554;42.132;24.786;2023-03-20T00:27:41;99749.28;;;8.65;100.00
7026;BME280;3554;42.132;24.786;2023-03-20T00:30:23;99735.44;;;8.61;100.00
7026;BME280;3554;42.132;24.786;2023-03-20T00:32:52;99746.06;;;8.55;100.00
7026;BME280;3554;42.132;24.786;2023-03-20T00:35:21;99745.88;;;8.61;100.00
7026;BME280;3554;42.132;24.786;2023-03-20T00:37:50;99732.63;;;8.69;100.00
7026;BME280;3554;42.132;24.786;2023-03-20T00:40:17;99728.41;;;8.65;100.00
7026;BME280;3554;42.132;24.786;2023-03-20T00:42:46;99708.75;;;8.52;100.00
7026;BME280;3554;42.132;24.786;2023-03-20T00:45:16;99691.72;;;8.39;100.00
7026;BME280;3554;42.132;24.786;2023-03-20T00:47:44;99726.81;;;8.59;100.00
7026;BME280;3554;42.132;24.786;2023-03-20T00:50:19;99671.97;;;8.30;100.00
7026;BME280;3554;42.132;24.786;2023-03-20T00:52:46;99716.28;;;8.62;100.00
7026;BME280;3554;42.132;24.786;2023-03-20T00:55:13;99716.19;;;8.65;100.00
7026;BME280;3554;42.132;24.786;2023-03-20T00:57:46;99698.22;;;8.55;100.00
7026;BME280;3554;42.132;24.786;2023-03-20T01:00:33;99708.31;;;8.67;100.00
7026;BME280;3554;42.132;24.786;2023-03-20T01:03:10;99711.97;;;8.61;100.00
7026;BME280;3554;42.132;24.786;2023-03-20T01:05:38;99688.22;;;8.40;100.00
7026;BME280;3554;42.132;24.786;2023-03-20T01:08:13;99708.81;;;8.50;100.00
7026;BME280;3554;42.132;24.786;2023-03-20T01:10:42;99675.47;;;8.29;100.00
7026;BME280;3554;42.132;24.786;2023-03-20T01:13:17;99689.94;;;8.41;100.00
7026;BME280;3554;42.132;24.786;2023-03-20T01:15:46;99710.75;;;8.42;100.00
7026;BME280;3554;42.132;24.786;2023-03-20T01:18:15;99702.28;;;8.34;100.00
7026;BME280;3554;42.132;24.786;2023-03-20T01:20:43;99707.50;;;8.34;100.00
7026;BME280;3554;42.132;24.786;2023-03-20T01:23:11;99697.06;;;8.34;100.00
7026;BME280;3554;42.132;24.786;2023-03-20T01:25:38;99667.72;;;8.26;100.00
7026;BME280;3554;42.132;24.786;2023-03-20T01:28:13;99694.47;;;8.34;100.00
7026;BME280;3554;42.132;24.786;2023-03-20T01:30:40;99691.19;;;8.26;100.00
7026;BME280;3554;42.132;24.786;2023-03-20T01:33:13;99647.28;;;8.10;100.00
7026;BME280;3554;42.132;24.786;2023-03-20T01:35:41;99686.91;;;8.22;100.00
7026;BME280;3554;42.132;24.786;2023-03-20T01:38:14;99674.72;;;8.24;100.00
7026;BME280;3554;42.132;24.786;2023-03-20T01:40:50;99679.25;;;8.16;100.00
7026;BME280;3554;42.132;24.786;2023-03-20T01:43:20;99669.38;;;7.95;100.00
7026;BME280;3554;42.132;24.786;2023-03-20T01:45:57;99661.34;;;8.04;100.00
7026;BME280;3554;42.132;24.786;2023-03-20T01:48:34;99657.94;;;8.01;100.00
7026;BME280;3554;42.132;24.786;2023-03-20T01:51:02;99651.47;;;8.15;100.00
7026;BME280;3554;42.132;24.786;2023-03-20T01:53:30;99654.25;;;8.09;100.00
7026;BME280;3554;42.132;24.786;2023-03-20T01:55:59;99647.28;;;8.10;100.00
7026;BME280;3554;42.132;24.786;2023-03-20T01:58:29;99652.19;;;8.22;100.00
7026;BME280;3554;42.132;24.786;2023-03-20T02:00:58;99644.63;;;8.11;100.00
7026;BME280;3554;42.132;24.786;2023-03-20T02:03:25;99652.56;;;8.07;100.00
7026;BME280;3554;42.132;24.786;2023-03-20T02:05:54;99642.59;;;8.24;100.00
7026;BME280;3554;42.132;24.786;2023-03-20T02:08:26;99622.19;;;8.06;100.00
7026;BME280;3554;42.132;24.786;2023-03-20T02:10:55;99655.88;;;8.13;100.00
7026;BME280;3554;42.132;24.786;2023-03-20T02:13:23;99596.84;;;7.79;100.00
7026;BME280;3554;42.132;24.786;2023-03-20T02:15:55;99642.03;;;8.11;100.00
7026;BME280;3554;42.132;24.786;2023-03-20T02:18:23;99652.59;;;8.05;100.00
7026;BME280;3554;42.132;24.786;2023-03-20T02:27:08;99655.41;;;7.98;100.00
7026;BME280;3554;42.132;24.786;2023-03-20T02:30:06;99649.94;;;7.73;100.00
7026;BME280;3554;42.132;24.786;2023-03-20T02:33:00;99643.31;;;7.60;100.00
7026;BME280;3554;42.132;24.786;2023-03-20T02:38:53;99628.47;;;7.65;100.00
7026;BME280;3554;42.132;24.786;2023-03-20T02:41:29;99625.84;;;7.65;100.00
7026;BME280;3554;42.132;24.786;2023-03-20T02:44:00;99617.75;;;7.42;100.00
7026;BME280;3554;42.132;24.786;2023-03-20T02:46:35;99626.22;;;7.50;100.00
7026;BME280;3554;42.132;24.786;2023-03-20T02:49:16;99638.41;;;7.48;100.00
7026;BME280;3554;42.132;24.786;2023-03-20T02:51:50;99642.00;;;7.44;100.00
7026;BME280;3554;42.132;24.786;2023-03-20T02:54:25;99643.78;;;7.42;100.00
7026;BME280;3554;42.132;24.786;2023-03-20T02:57:00;99643.13;;;7.32;100.00
7026;BME280;3554;42.132;24.786;2023-03-20T02:59:31;99645.09;;;7.23;100.00
7026;BME280;3554;42.132;24.786;2023-03-20T03:02:04;99655.50;;;7.23;100.00
7026;BME280;3554;42.132;24.786;2023-03-20T03:04:35;99647.97;;;7.11;100.00
7026;BME280;3554;42.132;24.786;2023-03-20T03:07:05;99648.84;;;7.11;100.00
7026;BME280;3554;42.132;24.786;2023-03-20T03:09:39;99647.94;;;7.12;100.00
7026;BME280;3554;42.132;24.786;2023-03-20T03:12:11;99643.72;;;7.08;100.00
7026;BME280;3554;42.132;24.786;2023-03-20T03:14:43;99630.91;;;6.99;100.00
7026;BME280;3554;42.132;24.786;2023-03-20T03:17:12;99651.78;;;6.95;100.00
7026;BME280;3554;42.132;24.786;2023-03-20T03:19:44;99650.38;;;6.82;100.00
7026;BME280;3554;42.132;24.786;2023-03-20T03:22:13;99648.63;;;6.81;100.00
7026;BME280;3554;42.132;24.786;2023-03-20T03:24:44;99639.91;;;6.83;100.00
7026;BME280;3554;42.132;24.786;2023-03-20T03:27:16;99635.59;;;6.82;100.00
7026;BME280;3554;42.132;24.786;2023-03-20T03:29:48;99636.44;;;6.83;100.00
7026;BME280;3554;42.132;24.786;2023-03-20T03:32:27;99631.25;;;6.83;100.00
7026;BME280;3554;42.132;24.786;2023-03-20T03:34:55;99639.22;;;6.75;100.00
7026;BME280;3554;42.132;24.786;2023-03-20T03:37:28;99639.34;;;6.69;100.00
7026;BME280;3554;42.132;24.786;2023-03-20T03:40:04;99621.25;;;6.63;100.00
7026;BME280;3554;42.132;24.786;2023-03-20T03:42:38;99647.50;;;6.53;100.00
7026;BME280;3554;42.132;24.786;2023-03-20T03:45:11;99639.81;;;6.46;100.00
7026;BME280;3554;42.132;24.786;2023-03-20T03:47:44;99612.44;;;6.29;100.00
7026;BME280;3554;42.132;24.786;2023-03-20T03:50:15;99641.59;;;6.43;100.00
7026;BME280;3554;42.132;24.786;2023-03-20T03:52:45;99631.72;;;6.17;100.00
7026;BME280;3554;42.132;24.786;2023-03-20T03:55:20;99641.94;;;6.25;100.00
7026;BME280;3554;42.132;24.786;2023-03-20T03:57:51;99648.72;;;6.35;100.00
7026;BME280;3554;42.132;24.786;2023-03-20T04:00:23;99652.97;;;6.37;100.00
7026;BME280;3554;42.132;24.786;2023-03-20T04:02:55;99643.59;;;6.30;100.00
7026;BME280;3554;42.132;24.786;2023-03-20T04:05:23;99650.44;;;6.34;100.00
7026;BME280;3554;42.132;24.786;2023-03-20T04:07:53;99656.44;;;6.38;100.00
7026;BME280;3554;42.132;24.786;2023-03-20T04:10:22;99637.91;;;6.10;100.00
7026;BME280;3554;42.132;24.786;2023-03-20T04:12:49;99650.84;;;6.13;100.00
7026;BME280;3554;42.132;24.786;2023-03-20T04:15:16;99658.63;;;6.13;100.00
7026;BME280;3554;42.132;24.786;2023-03-20T04:17:44;99663.03;;;6.10;100.00
7026;BME280;3554;42.132;24.786;2023-03-20T04:20:12;99638.22;;;5.94;100.00
7026;BME280;3554;42.132;24.786;2023-03-20T04:22:39;99650.13;;;6.05;100.00
7026;BME280;3554;42.132;24.786;2023-03-20T04:25:08;99637.19;;;6.02;100.00
7026;BME280;3554;42.132;24.786;2023-03-20T04:27:37;99656.84;;;6.17;100.00
7026;BME280;3554;42.132;24.786;2023-03-20T04:30:05;99662.91;;;6.17;100.00
7026;BME280;3554;42.132;24.786;2023-03-20T04:32:32;99629.31;;;6.07;100.00
7026;BME280;3554;42.132;24.786;2023-03-20T04:34:59;99665.25;;;6.31;100.00
7026;BME280;3554;42.132;24.786;2023-03-20T04:37:25;99655.75;;;6.30;100.00
7026;BME280;3554;42.132;24.786;2023-03-20T04:39:52;99665.13;;;6.35;100.00
7026;BME280;3554;42.132;24.786;2023-03-20T04:42:19;99672.84;;;6.41;100.00
7026;BME280;3554;42.132;24.786;2023-03-20T04:44:47;99671.13;;;6.40;100.00
7026;BME280;3554;42.132;24.786;2023-03-20T04:47:14;99670.97;;;6.48;100.00
7026;BME280;3554;42.132;24.786;2023-03-20T04:49:41;99674.47;;;6.47;100.00
7026;BME280;3554;42.132;24.786;2023-03-20T04:52:08;99679.75;;;6.42;100.00
7026;BME280;3554;42.132;24.786;2023-03-20T04:54:35;99675.53;;;6.35;100.00
7026;BME280;3554;42.132;24.786;2023-03-20T04:57:01;99682.44;;;6.38;100.00
7026;BME280;3554;42.132;24.786;2023-03-20T04:59:28;99684.16;;;6.39;100.00
7026;BME280;3554;42.132;24.786;2023-03-20T05:01:57;99688.31;;;6.47;100.00
7026;BME280;3554;42.132;24.786;2023-03-20T05:04:23;99703.06;;;6.47;100.00
7026;BME280;3554;42.132;24.786;2023-03-20T05:06:50;99708.31;;;6.44;100.00
7026;BME280;3554;42.132;24.786;2023-03-20T05:09:17;99701.34;;;6.46;100.00
7026;BME280;3554;42.132;24.786;2023-03-20T05:11:44;99701.91;;;6.62;100.00
7026;BME280;3554;42.132;24.786;2023-03-20T05:14:11;99700.66;;;6.81;100.00
7026;BME280;3554;42.132;24.786;2023-03-20T05:16:38;99707.69;;;6.76;100.00
7026;BME280;3554;42.132;24.786;2023-03-20T05:19:06;99711.16;;;6.76;100.00
7026;BME280;3554;42.132;24.786;2023-03-20T05:21:33;99708.16;;;6.96;100.00
7026;BME280;3554;42.132;24.786;2023-03-20T05:24:00;99714.25;;;6.95;100.00
7026;BME280;3554;42.132;24.786;2023-03-20T05:26:27;99664.09;;;6.88;100.00
7026;BME280;3554;42.132;24.786;2023-03-20T05:28:53;99721.16;;;7.35;100.00
7026;BME280;3554;42.132;24.786;2023-03-20T05:31:20;99710.75;;;7.35;100.00
7026;BME280;3554;42.132;24.786;2023-03-20T05:33:47;99707.75;;;7.53;100.00
7026;BME280;3554;42.132;24.786;2023-03-20T05:36:15;99705.97;;;7.55;100.00
7026;BME280;3554;42.132;24.786;2023-03-20T05:38:42;99711.03;;;7.60;100.00
7026;BME280;3554;42.132;24.786;2023-03-20T05:41:09;99707.97;;;7.81;100.00
7026;BME280;3554;42.132;24.786;2023-03-20T05:43:36;99711.31;;;7.86;100.00
7026;BME280;3554;42.132;24.786;2023-03-20T05:46:03;99711.25;;;7.88;100.00
7026;BME280;3554;42.132;24.786;2023-03-20T05:48:30;99713.47;;;8.04;100.00
7026;BME280;3554;42.132;24.786;2023-03-20T05:50:57;99714.94;;;8.14;100.00
7026;BME280;3554;42.132;24.786;2023-03-20T05:53:25;99715.56;;;8.25;100.00
7026;BME280;3554;42.132;24.786;2023-03-20T05:55:52;99716.63;;;8.17;100.00
7026;BME280;3554;42.132;24.786;2023-03-20T05:58:19;99722.47;;;8.26;100.00
7026;BME280;3554;42.132;24.786;2023-03-20T06:00:46;99710.75;;;8.42;100.00
7026;BME280;3554;42.132;24.786;2023-03-20T06:03:12;99719.25;;;8.50;100.00
7026;BME280;3554;42.132;24.786;2023-03-20T06:05:39;99717.06;;;8.66;100.00
7026;BME280;3554;42.132;24.786;2023-03-20T06:08:07;99713.03;;;8.54;100.00
7026;BME280;3554;42.132;24.786;2023-03-20T06:10:35;99702.44;;;8.60;100.00
7026;BME280;3554;42.132;24.786;2023-03-20T06:13:01;99714.66;;;8.58;100.00
7026;BME280;3554;42.132;24.786;2023-03-20T06:15:28;99709.84;;;8.76;100.00
7026;BME280;3554;42.132;24.786;2023-03-20T06:17:55;99695.28;;;8.69;100.00
7026;BME280;3554;42.132;24.786;2023-03-20T06:20:23;99702.59;;;8.85;100.00
7026;BME280;3554;42.132;24.786;2023-03-20T06:22:50;99710.47;;;8.84;100.00
7026;BME280;3554;42.132;24.786;2023-03-20T06:25:17;99707.94;;;8.50;100.00
7026;BME280;3554;42.132;24.786;2023-03-20T06:27:46;99708.06;;;8.76;100.00
7026;BME280;3554;42.132;24.786;2023-03-20T06:30:14;99707.91;;;8.82;100.00
7026;BME280;3554;42.132;24.786;2023-03-20T06:32:41;99687.66;;;8.92;100.00
7026;BME280;3554;42.132;24.786;2023-03-20T06:35:09;99703.31;;;8.92;100.00
7026;BME280;3554;42.132;24.786;2023-03-20T06:37:36;99695.94;;;8.75;100.00
7026;BME280;3554;42.132;24.786;2023-03-20T06:40:04;99662.66;;;8.52;100.00
7026;BME280;3554;42.132;24.786;2023-03-20T06:42:31;99706.50;;;9.01;100.00
7026;BME280;3554;42.132;24.786;2023-03-20T06:45:00;99711.50;;;9.09;100.00
7026;BME280;3554;42.132;24.786;2023-03-20T06:47:27;99710.53;;;9.40;100.00
7026;BME280;3554;42.132;24.786;2023-03-20T06:49:53;99708.13;;;9.88;100.00
7026;BME280;3554;42.132;24.786;2023-03-20T06:52:20;99698.41;;;10.19;100.00
7026;BME280;3554;42.132;24.786;2023-03-20T06:54:47;99706.09;;;10.48;100.00
7026;BME280;3554;42.132;24.786;2023-03-20T06:57:15;99677.88;;;10.33;100.00
7026;BME280;3554;42.132;24.786;2023-03-20T06:59:42;99695.81;;;10.44;100.00
7026;BME280;3554;42.132;24.786;2023-03-20T07:02:11;99711.03;;;10.33;100.00
7026;BME280;3554;42.132;24.786;2023-03-20T07:04:38;99698.34;;;10.70;100.00
7026;BME280;3554;42.132;24.786;2023-03-20T07:07:05;99704.31;;;10.75;100.00
7026;BME280;3554;42.132;24.786;2023-03-20T07:09:32;99707.81;;;10.74;100.00
7026;BME280;3554;42.132;24.786;2023-03-20T07:11:59;99716.28;;;10.80;100.00
7026;BME280;3554;42.132;24.786;2023-03-20T07:14:26;99710.72;;;10.90;100.00
7026;BME280;3554;42.132;24.786;2023-03-20T07:16:53;99713.25;;;11.16;100.00
7026;BME280;3554;42.132;24.786;2023-03-20T07:19:22;99700.59;;;11.27;100.00
7026;BME280;3554;42.132;24.786;2023-03-20T07:21:49;99702.91;;;11.34;100.00
7026;BME280;3554;42.132;24.786;2023-03-20T07:24:17;99714.16;;;11.38;100.00
7026;BME280;3554;42.132;24.786;2023-03-20T07:26:44;99707.47;;;11.52;100.00
7026;BME280;3554;42.132;24.786;2023-03-20T07:29:11;99703.50;;;11.65;100.00
7026;BME280;3554;42.132;24.786;2023-03-20T07:31:38;99707.19;;;12.03;100.00
7026;BME280;3554;42.132;24.786;2023-03-20T07:34:05;99698.38;;;12.04;100.00
7026;BME280;3554;42.132;24.786;2023-03-20T07:36:33;99695.69;;;12.06;100.00
7026;BME280;3554;42.132;24.786;2023-03-20T07:39:00;99700.06;;;12.07;100.00
7026;BME280;3554;42.132;24.786;2023-03-20T07:41:27;99698.16;;;11.22;100.00
7026;BME280;3554;42.132;24.786;2023-03-20T07:43:54;99696.88;;;11.32;100.00
7026;BME280;3554;42.132;24.786;2023-03-20T07:46:21;99685.81;;;11.47;100.00
7026;BME280;3554;42.132;24.786;2023-03-20T07:48:48;99679.53;;;11.30;100.00
7026;BME280;3554;42.132;24.786;2023-03-20T07:51:14;99695.94;;;11.56;100.00
7026;BME280;3554;42.132;24.786;2023-03-20T07:53:43;99694.16;;;11.80;100.00
7026;BME280;3554;42.132;24.786;2023-03-20T07:56:10;99695.31;;;11.28;100.00
7026;BME280;3554;42.132;24.786;2023-03-20T07:58:36;99703.09;;;11.53;100.00
7026;BME280;3554;42.132;24.786;2023-03-20T08:01:03;99699.81;;;11.69;100.00
7026;BME280;3554;42.132;24.786;2023-03-20T08:03:31;99695.31;;;11.73;100.00
7026;BME280;3554;42.132;24.786;2023-03-20T08:05:58;99693.44;;;11.97;100.00
7026;BME280;3554;42.132;24.786;2023-03-20T08:08:26;99678.88;;;11.90;100.00
7026;BME280;3554;42.132;24.786;2023-03-20T08:10:54;99692.56;;;11.98;100.00
7026;BME280;3554;42.132;24.786;2023-03-20T08:13:21;99687.66;;;12.10;100.00
7026;BME280;3554;42.132;24.786;2023-03-20T08:15:48;99687.78;;;11.85;100.00
7026;BME280;3554;42.132;24.786;2023-03-20T08:18:16;99684.31;;;11.63;100.00
7026;BME280;3554;42.132;24.786;2023-03-20T08:20:44;99685.28;;;12.04;100.00
7026;BME280;3554;42.132;24.786;2023-03-20T08:23:11;99676.50;;;12.45;100.00
7026;BME280;3554;42.132;24.786;2023-03-20T08:25:38;99687.19;;;12.61;100.00
7026;BME280;3554;42.132;24.786;2023-03-20T08:28:06;99695.97;;;12.80;100.00
7026;BME280;3554;42.132;24.786;2023-03-20T08:30:33;99696.31;;;12.72;100.00
7026;BME280;3554;42.132;24.786;2023-03-20T08:33:00;99690.78;;;12.78;100.00
7026;BME280;3554;42.132;24.786;2023-03-20T08:35:27;99685.56;;;13.17;100.00
7026;BME280;3554;42.132;24.786;2023-03-20T08:37:54;99688.53;;;13.28;100.00
7026;BME280;3554;42.132;24.786;2023-03-20T08:40:21;99691.78;;;13.33;100.00
7026;BME280;3554;42.132;24.786;2023-03-20T08:42:47;99691.19;;;13.64;100.00
7026;BME280;3554;42.132;24.786;2023-03-20T08:45:16;99684.44;;;13.77;100.00
7026;BME280;3554;42.132;24.786;2023-03-20T08:47:46;99679.31;;;13.74;100.00
7026;BME280;3554;42.132;24.786;2023-03-20T08:50:13;99682.72;;;13.76;100.00
7026;BME280;3554;42.132;24.786;2023-03-20T08:52:40;99681.72;;;13.78;100.00
7026;BME280;3554;42.132;24.786;2023-03-20T08:55:08;99671.25;;;13.60;100.00
7026;BME280;3554;42.132;24.786;2023-03-20T08:57:35;99664.28;;;13.76;100.00
7026;BME280;3554;42.132;24.786;2023-03-20T09:00:03;99672.53;;;13.87;100.00
7026;BME280;3554;42.132;24.786;2023-03-20T09:02:33;99668.44;;;13.98;100.00
7026;BME280;3554;42.132;24.786;2023-03-20T09:05:00;99678.19;;;13.96;100.00
7026;BME280;3554;42.132;24.786;2023-03-20T09:07:26;99665.66;;;14.19;100.00
7026;BME280;3554;42.132;24.786;2023-03-20T09:09:53;99664.44;;;14.43;100.00
7026;BME280;3554;42.132;24.786;2023-03-20T09:12:20;99664.06;;;14.50;100.00
7026;BME280;3554;42.132;24.786;2023-03-20T09:14:47;99665.28;;;14.60;100.00
7026;BME280;3554;42.132;24.786;2023-03-20T09:17:14;99655.00;;;14.56;100.00
7026;BME280;3554;42.132;24.786;2023-03-20T09:19:42;99662.75;;;14.74;100.00
7026;BME280;3554;42.132;24.786;2023-03-20T09:22:11;99658.66;;;14.69;100.00
7026;BME280;3554;42.132;24.786;2023-03-20T09:24:38;99663.34;;;14.64;100.00
7026;BME280;3554;42.132;24.786;2023-03-20T09:27:06;99652.31;;;14.73;100.00
7026;BME280;3554;42.132;24.786;2023-03-20T09:29:33;99650.31;;;14.61;100.00
7026;BME280;3554;42.132;24.786;2023-03-20T09:32:00;99647.56;;;14.79;100.00
7026;BME280;3554;42.132;24.786;2023-03-20T09:34:27;99639.31;;;14.19;100.00
7026;BME280;3554;42.132;24.786;2023-03-20T09:36:55;99629.28;;;14.10;100.00
7026;BME280;3554;42.132;24.786;2023-03-20T09:39:21;99638.06;;;14.60;100.00
7026;BME280;3554;42.132;24.786;2023-03-20T09:41:49;99634.66;;;14.90;100.00
7026;BME280;3554;42.132;24.786;2023-03-20T09:44:27;99630.84;;;15.12;100.00
7026;BME280;3554;42.132;24.786;2023-03-20T09:47:08;99626.66;;;15.40;100.00
7026;BME280;3554;42.132;24.786;2023-03-20T09:49:44;99578.47;;;15.21;100.00
7026;BME280;3554;42.132;24.786;2023-03-20T09:52:23;99622.03;;;15.44;100.00
7026;BME280;3554;42.132;24.786;2023-03-20T09:54:55;99616.72;;;14.81;100.00
7026;BME280;3554;42.132;24.786;2023-03-20T09:57:25;99612.34;;;14.32;100.00
7026;BME280;3554;42.132;24.786;2023-03-20T09:59:54;99609.25;;;14.57;100.00
7026;BME280;3554;42.132;24.786;2023-03-20T10:02:32;99606.13;;;14.98;100.00
7026;BME280;3554;42.132;24.786;2023-03-20T10:05:02;99605.75;;;15.20;100.00
7026;BME280;3554;42.132;24.786;2023-03-20T10:07:31;99599.44;;;14.76;100.00
7026;BME280;3554;42.132;24.786;2023-03-20T10:09:58;99598.53;;;14.77;100.00
7026;BME280;3554;42.132;24.786;2023-03-20T10:12:40;99598.22;;;14.98;100.00
7026;BME280;3554;42.132;24.786;2023-03-20T10:15:19;99591.81;;;15.34;100.00
7026;BME280;3554;42.132;24.786;2023-03-20T10:17:55;99543.19;;;15.24;100.00
7026;BME280;3554;42.132;24.786;2023-03-20T10:20:32;99589.34;;;15.62;100.00
7026;BME280;3554;42.132;24.786;2023-03-20T10:23:05;99575.66;;;15.85;100.00
7026;BME280;3554;42.132;24.786;2023-03-20T10:25:34;99554.69;;;16.12;100.00
7026;BME280;3554;42.132;24.786;2023-03-20T10:28:05;99568.28;;;16.05;100.00
7026;BME280;3554;42.132;24.786;2023-03-20T10:30:44;99568.09;;;16.23;100.00
7026;BME280;3554;42.132;24.786;2023-03-20T10:33:24;99569.53;;;16.42;100.00
7026;BME280;3554;42.132;24.786;2023-03-20T10:36:05;99564.66;;;16.64;100.00
7026;BME280;3554;42.132;24.786;2023-03-20T10:38:41;99569.38;;;16.59;100.00
7026;BME280;3554;42.132;24.786;2023-03-20T10:41:14;99561.63;;;16.70;100.00
7026;BME280;3554;42.132;24.786;2023-03-20T10:43:43;99551.91;;;16.71;100.00
7026;BME280;3554;42.132;24.786;2023-03-20T10:46:14;99540.56;;;16.83;100.00
7026;BME280;3554;42.132;24.786;2023-03-20T10:48:45;99534.31;;;16.84;100.00
7026;BME280;3554;42.132;24.786;2023-03-20T10:51:15;99527.16;;;16.86;100.00
7026;BME280;3554;42.132;24.786;2023-03-20T10:53:46;99526.84;;;17.04;100.00
7026;BME280;3554;42.132;24.786;2023-03-20T10:56:19;99489.59;;;16.67;100.00
7026;BME280;3554;42.132;24.786;2023-03-20T10:58:56;99528.94;;;16.99;100.00
7026;BME280;3554;42.132;24.786;2023-03-20T11:01:23;99514.75;;;17.00;100.00
7026;BME280;3554;42.132;24.786;2023-03-20T11:03:50;99483.06;;;16.86;97.41
7026;BME280;3554;42.132;24.786;2023-03-20T11:06:19;99521.66;;;17.30;90.09
7026;BME280;3554;42.132;24.786;2023-03-20T11:08:51;99504.00;;;17.43;92.57
7026;BME280;3554;42.132;24.786;2023-03-20T11:11:23;99517.94;;;17.59;91.27
7026;BME280;3554;42.132;24.786;2023-03-20T11:13:51;99506.72;;;17.55;92.35
7026;BME280;3554;42.132;24.786;2023-03-20T11:16:21;99500.91;;;17.63;92.49
7026;BME280;3554;42.132;24.786;2023-03-20T11:18:50;99495.63;;;17.75;91.21
7026;BME280;3554;42.132;24.786;2023-03-20T11:21:21;99444.47;;;17.50;91.29
7026;BME280;3554;42.132;24.786;2023-03-20T11:23:50;99478.38;;;17.95;91.22
7026;BME280;3554;42.132;24.786;2023-03-20T11:26:19;99469.16;;;17.75;88.70
7026;BME280;3554;42.132;24.786;2023-03-20T11:28:55;99473.50;;;17.89;90.43
7026;BME280;3554;42.132;24.786;2023-03-20T11:31:25;99470.25;;;17.73;91.98
7026;BME280;3554;42.132;24.786;2023-03-20T11:34:09;99464.22;;;17.83;92.43
7026;BME280;3554;42.132;24.786;2023-03-20T11:36:36;99458.91;;;17.83;92.28
7026;BME280;3554;42.132;24.786;2023-03-20T11:39:11;99432.44;;;17.71;90.81
7026;BME280;3554;42.132;24.786;2023-03-20T11:41:46;99445.97;;;17.79;89.40
7026;BME280;3554;42.132;24.786;2023-03-20T11:44:23;99434.63;;;17.77;88.21
7026;BME280;3554;42.132;24.786;2023-03-20T11:46:55;99439.81;;;17.66;87.42
7026;BME280;3554;42.132;24.786;2023-03-20T11:49:23;99425.41;;;17.70;86.04
7026;BME280;3554;42.132;24.786;2023-03-20T11:51:52;99419.06;;;17.97;84.96
7026;BME280;3554;42.132;24.786;2023-03-20T11:54:23;99426.38;;;18.19;82.18
7026;BME280;3554;42.132;24.786;2023-03-20T11:56:53;99426.03;;;18.11;79.25
7026;BME280;3554;42.132;24.786;2023-03-20T11:59:20;99414.88;;;18.31;79.60
7026;BME280;3554;42.132;24.786;2023-03-20T12:01:49;99417.09;;;18.37;78.15
7026;BME280;3554;42.132;24.786;2023-03-20T12:04:19;99417.09;;;18.37;78.03
7026;BME280;3554;42.132;24.786;2023-03-20T12:06:49;99407.06;;;18.30;78.82
7026;BME280;3554;42.132;24.786;2023-03-20T12:09:34;99402.88;;;18.38;76.57
7026;BME280;3554;42.132;24.786;2023-03-20T12:12:07;99401.59;;;18.56;71.64
7026;BME280;3554;42.132;24.786;2023-03-20T12:14:43;99404.53;;;18.64;68.86
7026;BME280;3554;42.132;24.786;2023-03-20T12:17:34;99408.16;;;18.63;68.39
7026;BME280;3554;42.132;24.786;2023-03-20T12:20:13;99403.22;;;18.70;66.59
7026;BME280;3554;42.132;24.786;2023-03-20T12:22:50;99404.25;;;18.80;66.47
7026;BME280;3554;42.132;24.786;2023-03-20T12:25:21;99398.06;;;18.68;63.69
7026;BME280;3554;42.132;24.786;2023-03-20T12:27:55;99394.84;;;18.76;65.02
7026;BME280;3554;42.132;24.786;2023-03-20T12:30:31;99399.00;;;18.91;68.43
7026;BME280;3554;42.132;24.786;2023-03-20T12:33:03;99387.81;;;18.98;70.10
7026;BME280;3554;42.132;24.786;2023-03-20T12:35:35;99387.47;;;19.03;68.87
7026;BME280;3554;42.132;24.786;2023-03-20T12:38:04;99379.22;;;19.18;68.92
7026;BME280;3554;42.132;24.786;2023-03-20T12:40:41;99362.28;;;18.97;68.42
7026;BME280;3554;42.132;24.786;2023-03-20T12:43:14;99359.91;;;19.16;68.32
7026;BME280;3554;42.132;24.786;2023-03-20T12:45:46;99377.06;;;19.23;68.76
7026;BME280;3554;42.132;24.786;2023-03-20T12:48:36;99368.75;;;19.28;68.06
7026;BME280;3554;42.132;24.786;2023-03-20T12:51:10;99373.03;;;19.31;66.75
7026;BME280;3554;42.132;24.786;2023-03-20T12:53:54;99366.53;;;19.35;65.44
7026;BME280;3554;42.132;24.786;2023-03-20T12:56:38;99365.66;;;19.34;63.34
7026;BME280;3554;42.132;24.786;2023-03-20T12:59:15;99370.13;;;19.34;60.22
7026;BME280;3554;42.132;24.786;2023-03-20T13:01:50;99306.34;;;19.22;56.78
7026;BME280;3554;42.132;24.786;2023-03-20T13:04:45;99362.94;;;19.69;57.08
7026;BME280;3554;42.132;24.786;2023-03-20T13:07:17;99357.41;;;19.72;57.06
7026;BME280;3554;42.132;24.786;2023-03-20T13:09:55;99350.91;;;19.76;58.41
7026;BME280;3554;42.132;24.786;2023-03-20T13:12:35;99343.41;;;19.81;58.86
7026;BME280;3554;42.132;24.786;2023-03-20T13:15:13;99352.22;;;19.92;56.74
7026;BME280;3554;42.132;24.786;2023-03-20T13:17:45;99348.34;;;20.07;57.09
7026;BME280;3554;42.132;24.786;2023-03-20T13:20:21;99332.03;;;20.12;55.61
7026;BME280;3554;42.132;24.786;2023-03-20T13:22:59;99347.13;;;19.89;55.22
7026;BME280;3554;42.132;24.786;2023-03-20T13:28:28;99336.38;;;19.91;56.19
7026;BME280;3554;42.132;24.786;2023-03-20T13:31:04;99333.00;;;20.00;54.27
7026;BME280;3554;42.132;24.786;2023-03-20T13:33:38;99328.88;;;19.96;54.75
7026;BME280;3554;42.132;24.786;2023-03-20T13:36:18;99332.63;;;20.04;54.63